createdAt,value
2022-11-24T00:00:24.773Z,9.303296
2022-11-24T00:01:23.935Z,9.303302
2022-11-24T00:02:24.086Z,9.303182
2022-11-24T00:03:24.229Z,9.303127
2022-11-24T00:04:24.023Z,9.302987
2022-11-24T00:05:23.917Z,9.302846
2022-11-24T00:06:23.953Z,9.302928
2022-11-24T00:07:23.944Z,9.303151
2022-11-24T00:08:23.852Z,9.302955
2022-11-24T00:09:23.870Z,9.302937
2022-11-24T00:10:23.815Z,9.303182
2022-11-24T00:11:23.832Z,9.303145
2022-11-24T00:12:23.853Z,9.303132
2022-11-24T00:13:24.016Z,9.303008
2022-11-24T00:14:23.866Z,9.303140
2022-11-24T00:15:23.793Z,9.303079
2022-11-24T00:16:23.961Z,9.302899
2022-11-24T00:17:23.751Z,9.302815
2022-11-24T00:18:23.869Z,9.302857
2022-11-24T00:19:23.846Z,9.303010
2022-11-24T00:20:23.868Z,9.303031
2022-11-24T00:21:23.741Z,9.303007
2022-11-24T00:22:23.713Z,9.303054
2022-11-24T00:23:23.671Z,9.303079
2022-11-24T00:24:23.827Z,9.302967
2022-11-24T00:25:23.727Z,9.302866
2022-11-24T00:26:23.758Z,9.302891
2022-11-24T00:27:23.817Z,9.303053
2022-11-24T00:28:23.695Z,9.302868
2022-11-24T00:29:23.690Z,9.302941
2022-11-24T00:30:23.620Z,9.303086
2022-11-24T00:31:23.727Z,9.303105
2022-11-24T00:32:23.591Z,9.303050
2022-11-24T00:33:24.035Z,9.302970
2022-11-24T00:34:23.819Z,9.302909
2022-11-24T00:35:23.570Z,9.302932
2022-11-24T00:36:23.650Z,9.302905
2022-11-24T00:37:23.591Z,9.303005
2022-11-24T00:38:23.504Z,9.302983
2022-11-24T00:39:23.645Z,9.302989
2022-11-24T00:40:23.557Z,9.302986
2022-11-24T00:41:24.060Z,9.303059
2022-11-24T00:42:23.587Z,9.303033
2022-11-24T00:43:23.533Z,9.303117
2022-11-24T00:44:23.488Z,9.303072
2022-11-24T00:45:23.433Z,9.303091
2022-11-24T00:46:23.704Z,9.303016
2022-11-24T00:47:23.448Z,9.303006
2022-11-24T00:48:23.461Z,9.303003
2022-11-24T00:49:23.537Z,9.302976
2022-11-24T00:50:23.447Z,9.302922
2022-11-24T00:51:23.589Z,9.302983
2022-11-24T00:52:23.418Z,9.302981
2022-11-24T00:53:23.412Z,9.303049
2022-11-24T00:54:23.483Z,9.303053
2022-11-24T00:55:23.492Z,9.302984
2022-11-24T00:56:23.345Z,9.302804
2022-11-24T00:57:23.336Z,9.303034
2022-11-24T00:58:23.511Z,9.302984
2022-11-24T00:59:23.421Z,9.302946
2022-11-24T01:24:41.793Z,9.302938
2022-11-24T01:25:41.804Z,9.302964
2022-11-24T01:26:41.812Z,9.302940
2022-11-24T01:27:41.787Z,9.303141
2022-11-24T01:28:46.632Z,9.303069
2022-11-24T01:29:43.989Z,9.302999
2022-11-24T01:30:41.900Z,9.303082
2022-11-24T01:31:41.828Z,9.303006
2022-11-24T01:32:41.767Z,9.302986
2022-11-24T01:33:41.797Z,9.303257
2022-11-24T01:34:41.908Z,9.303432
2022-11-24T01:35:41.846Z,9.303260
2022-11-24T01:36:41.688Z,9.302838
2022-11-24T01:37:41.734Z,9.302896
2022-11-24T01:38:41.650Z,9.302986
2022-11-24T01:39:41.721Z,9.303007
2022-11-24T01:40:41.864Z,9.302843
2022-11-24T01:41:41.707Z,9.302898
2022-11-24T01:42:41.627Z,9.302854
2022-11-24T01:43:41.649Z,9.303010
2022-11-24T01:44:41.678Z,9.303041
2022-11-24T01:45:41.716Z,9.302918
2022-11-24T01:46:41.639Z,9.302977
2022-11-24T01:47:41.606Z,9.303184
2022-11-24T01:48:41.587Z,9.303041
2022-11-24T01:49:41.590Z,9.303044
2022-11-24T01:50:41.494Z,9.303233
2022-11-24T01:51:41.581Z,9.303027
2022-11-24T01:52:41.655Z,9.302905
2022-11-24T01:53:41.550Z,9.302843
2022-11-24T01:54:41.490Z,9.302981
2022-11-24T01:55:41.490Z,9.303061
2022-11-24T01:56:41.503Z,9.303087
2022-11-24T01:57:41.567Z,9.302979
2022-11-24T01:58:41.492Z,9.302771
2022-11-24T01:59:41.646Z,9.302829
2022-11-24T02:00:41.454Z,9.302930
2022-11-24T02:01:41.624Z,9.303035
2022-11-24T02:02:41.490Z,9.303016
2022-11-24T02:03:41.429Z,9.303041
2022-11-24T02:04:41.426Z,9.303143
2022-11-24T02:05:41.391Z,9.303114
2022-11-24T02:06:41.353Z,9.303077
2022-11-24T02:07:41.441Z,9.303042
2022-11-24T02:08:41.359Z,9.303025
2022-11-24T02:09:41.537Z,9.303011
2022-11-24T02:10:41.343Z,9.302913
2022-11-24T02:11:41.371Z,9.303066
2022-11-24T02:12:41.342Z,9.303150
2022-11-24T02:13:41.471Z,9.303082
2022-11-24T02:14:41.348Z,9.302981
2022-11-24T02:15:41.392Z,9.302988
2022-11-24T02:16:41.245Z,9.302970
2022-11-24T02:17:41.320Z,9.303070
2022-11-24T02:18:41.289Z,9.303021
2022-11-24T02:19:41.363Z,9.303118
2022-11-24T02:20:41.289Z,9.303105
2022-11-24T02:21:41.249Z,9.303068
2022-11-24T02:22:41.190Z,9.303030
2022-11-24T02:23:41.515Z,9.303035
2022-11-24T02:24:41.261Z,9.302999
2022-11-24T02:25:41.278Z,9.302925
2022-11-24T02:26:41.230Z,9.303057
2022-11-24T02:27:41.361Z,9.303058
2022-11-24T02:28:41.234Z,9.303008
2022-11-24T02:29:41.272Z,9.303045
2022-11-24T02:30:41.581Z,9.303018
2022-11-24T02:31:41.451Z,9.302956
2022-11-24T02:51:38.065Z,9.303073
2022-11-24T02:52:38.108Z,9.303024
2022-11-24T02:53:38.099Z,9.303073
2022-11-24T02:54:38.050Z,9.302992
2022-11-24T02:55:38.032Z,9.302950
2022-11-24T03:14:16.638Z,9.303117
2022-11-24T03:15:16.449Z,9.303418
2022-11-24T03:16:16.248Z,9.303283
2022-11-24T03:17:16.318Z,9.303196
2022-11-24T03:18:15.973Z,9.303232
2022-11-24T03:19:16.413Z,9.303086
2022-11-24T03:20:16.163Z,9.303041
2022-11-24T03:21:16.036Z,9.303043
2022-11-24T03:22:16.157Z,9.302979
2022-11-24T03:23:15.959Z,9.303308
2022-11-24T03:24:15.932Z,9.303230
2022-11-24T03:25:15.906Z,9.303076
2022-11-24T03:26:15.862Z,9.303228
2022-11-24T03:27:15.947Z,9.303142
2022-11-24T03:28:15.953Z,9.303226
2022-11-24T03:29:15.946Z,9.303170
2022-11-24T03:30:15.930Z,9.303113
2022-11-24T03:31:15.929Z,9.303191
2022-11-24T03:32:15.886Z,9.303326
2022-11-24T03:33:15.820Z,9.303121
2022-11-24T03:34:15.859Z,9.303086
2022-11-24T03:35:15.812Z,9.303042
2022-11-24T03:36:15.812Z,9.303038
2022-11-24T03:37:16.061Z,9.303102
2022-11-24T03:38:15.950Z,9.303171
2022-11-24T03:39:16.078Z,9.303062
2022-11-24T03:40:16.055Z,9.303153
2022-11-24T03:41:15.986Z,9.303244
2022-11-24T03:42:15.889Z,9.303183
2022-11-24T03:43:16.005Z,9.303301
2022-11-24T03:44:15.745Z,9.303314
2022-11-24T03:45:44.713Z,9.303311
2022-11-24T03:46:17.778Z,9.303401
2022-11-24T03:47:15.693Z,9.303368
2022-11-24T03:48:15.797Z,9.303516
2022-11-24T03:49:15.870Z,9.303327
2022-11-24T03:50:16.508Z,9.303266
2022-11-24T03:51:15.781Z,9.303234
2022-11-24T03:52:15.678Z,9.303255
2022-11-24T03:53:15.774Z,9.303246
2022-11-24T03:54:15.676Z,9.303261
2022-11-24T03:55:15.719Z,9.303289
2022-11-24T03:56:15.612Z,9.303306
2022-11-24T03:57:15.754Z,9.303272
2022-11-24T03:58:16.355Z,9.303021
2022-11-24T03:59:16.009Z,9.303051
2022-11-24T04:00:15.647Z,9.303033
2022-11-24T04:01:15.747Z,9.303085
2022-11-24T04:02:15.594Z,9.303018
2022-11-24T04:03:15.715Z,9.303047
2022-11-24T04:10:52.201Z,9.303260
2022-11-24T04:11:51.997Z,9.303029
2022-11-24T04:12:51.940Z,9.303084
2022-11-24T04:13:51.897Z,9.303230
2022-11-24T04:14:51.904Z,9.303069
2022-11-24T04:15:51.936Z,9.303050
2022-11-24T04:16:51.810Z,9.302991
2022-11-24T04:17:51.855Z,9.303093
2022-11-24T04:18:51.813Z,9.303060
2022-11-24T04:19:51.834Z,9.302926
2022-11-24T04:20:51.885Z,9.303002
2022-11-24T04:21:51.924Z,9.303034
2022-11-24T04:22:51.814Z,9.302860
2022-11-24T04:23:51.898Z,9.302988
2022-11-24T04:24:51.916Z,9.303047
2022-11-24T07:17:07.447Z,9.303315
2022-11-24T09:19:56.405Z,9.302977
